createdAt,value
2022-12-25T00:02:01.999Z,25.92
2022-12-25T00:04:29.751Z,27.00
2022-12-25T00:06:59.390Z,25.15
2022-12-25T00:09:28.466Z,28.40
2022-12-25T00:11:56.023Z,24.00
2022-12-25T00:14:23.581Z,25.88
2022-12-25T00:16:51.079Z,27.70
2022-12-25T00:19:19.573Z,25.90
2022-12-25T00:21:47.122Z,27.52
2022-12-25T00:24:14.704Z,25.67
2022-12-25T00:26:42.225Z,28.92
2022-12-25T00:29:13.236Z,31.13
2022-12-25T00:31:41.308Z,31.77
2022-12-25T00:34:08.911Z,28.67
2022-12-25T00:36:41.139Z,31.35
2022-12-25T00:39:09.847Z,27.67
2022-12-25T00:41:55.787Z,28.50
2022-12-25T00:44:23.435Z,32.50
2022-12-25T00:46:51.150Z,31.27
2022-12-25T00:49:18.700Z,32.00
2022-12-25T00:51:46.322Z,29.38
2022-12-25T00:54:14.333Z,27.25
2022-12-25T00:56:42.118Z,31.23
2022-12-25T00:59:09.925Z,31.75
2022-12-25T01:01:38.270Z,28.55
2022-12-25T01:04:07.032Z,29.38
2022-12-25T01:06:35.170Z,29.80
2022-12-25T01:09:21.458Z,29.00
2022-12-25T01:11:49.177Z,29.85
2022-12-25T01:14:17.084Z,24.85
2022-12-25T01:16:44.882Z,35.00
2022-12-25T01:19:12.561Z,28.75
2022-12-25T01:21:40.094Z,25.33
2022-12-25T01:24:08.620Z,29.23
2022-12-25T01:26:36.257Z,30.67
2022-12-25T01:29:03.816Z,29.23
2022-12-25T01:31:31.331Z,26.80
2022-12-25T01:33:59.004Z,27.92
2022-12-25T01:36:27.063Z,27.88
2022-12-25T01:38:55.089Z,27.25
2022-12-25T01:41:24.698Z,24.63
2022-12-25T01:46:29.354Z,23.23
2022-12-25T01:49:00.838Z,26.13
2022-12-25T01:51:41.414Z,23.88
2022-12-25T01:54:16.182Z,24.10
2022-12-25T01:56:46.069Z,27.63
2022-12-25T01:59:16.949Z,25.08
2022-12-25T02:01:44.887Z,26.10
2022-12-25T02:04:19.703Z,28.60
2022-12-25T02:06:50.032Z,26.88
2022-12-25T02:09:19.061Z,27.38
2022-12-25T02:11:59.090Z,26.13
2022-12-25T02:14:31.179Z,33.05
2022-12-25T02:17:19.092Z,27.88
2022-12-25T02:19:46.854Z,28.50
2022-12-25T02:22:44.949Z,30.20
2022-12-25T02:25:15.669Z,27.55
2022-12-25T02:28:20.026Z,30.13
2022-12-25T02:30:54.507Z,28.65
2022-12-25T02:33:51.090Z,29.27
2022-12-25T02:36:24.664Z,32.28
2022-12-25T02:39:14.544Z,30.38
2022-12-25T02:41:45.550Z,27.63
2022-12-25T02:44:37.371Z,27.88
2022-12-25T02:47:26.733Z,27.20
2022-12-25T02:50:15.766Z,28.58
2022-12-25T02:53:05.341Z,27.42
2022-12-25T02:55:56.509Z,26.52
2022-12-25T02:58:44.368Z,28.42
2022-12-25T03:01:36.836Z,26.92
2022-12-25T03:04:27.120Z,23.88
2022-12-25T03:07:03.439Z,27.85
2022-12-25T03:09:58.951Z,26.52
2022-12-25T03:12:41.900Z,31.73
2022-12-25T03:15:30.599Z,31.15
2022-12-25T03:18:03.555Z,33.40
2022-12-25T03:20:50.358Z,30.85
2022-12-25T03:23:44.343Z,36.97
2022-12-25T03:26:30.919Z,35.58
2022-12-25T03:28:58.602Z,29.77
2022-12-25T03:31:46.154Z,33.00
2022-12-25T03:34:54.030Z,31.75
2022-12-25T03:37:42.712Z,31.85
2022-12-25T03:40:28.916Z,31.43
2022-12-25T03:43:22.745Z,31.70
2022-12-25T03:46:15.737Z,34.47
2022-12-25T03:49:06.160Z,31.13
2022-12-25T03:51:56.141Z,31.10
2022-12-25T03:54:45.636Z,33.10
2022-12-25T03:57:33.366Z,29.02
2022-12-25T04:00:19.582Z,28.50
2022-12-25T04:03:06.007Z,32.22
2022-12-25T04:05:52.306Z,27.50
2022-12-25T04:08:38.857Z,34.05
2022-12-25T04:11:24.959Z,29.83
2022-12-25T04:14:11.226Z,31.83
2022-12-25T04:16:57.317Z,32.60
2022-12-25T04:19:43.390Z,31.05
2022-12-25T04:22:29.862Z,34.85
2022-12-25T04:25:15.938Z,33.85
2022-12-25T04:28:02.698Z,36.30
2022-12-25T04:30:49.206Z,37.38
2022-12-25T04:33:35.467Z,44.15
2022-12-25T04:36:12.664Z,38.05
2022-12-25T04:38:41.114Z,37.55
2022-12-25T04:41:11.156Z,37.55
2022-12-25T04:43:38.842Z,39.75
2022-12-25T04:46:06.949Z,40.85
2022-12-25T04:48:36.769Z,38.75
2022-12-25T04:51:16.064Z,43.72
2022-12-25T04:53:45.257Z,42.42
2022-12-25T04:56:13.329Z,35.78
2022-12-25T04:58:41.749Z,40.92
2022-12-25T05:01:10.613Z,44.15
2022-12-25T05:03:38.942Z,40.78
2022-12-25T05:06:07.093Z,38.67
2022-12-25T05:08:36.172Z,38.55
2022-12-25T05:11:12.697Z,42.08
2022-12-25T05:13:40.810Z,38.90
2022-12-25T05:16:12.838Z,36.55
2022-12-25T05:18:40.734Z,38.30
2022-12-25T05:21:10.677Z,36.25
2022-12-25T05:23:38.835Z,41.30
2022-12-25T05:26:07.578Z,34.95
2022-12-25T05:28:35.817Z,38.07
2022-12-25T05:31:03.484Z,41.65
2022-12-25T05:33:31.101Z,34.58
2022-12-25T05:35:59.918Z,39.42
2022-12-25T05:38:27.477Z,36.85
2022-12-25T05:40:55.598Z,44.95
2022-12-25T05:43:24.106Z,44.30
2022-12-25T05:45:51.639Z,41.65
2022-12-25T05:48:19.664Z,39.00
2022-12-25T05:50:47.514Z,42.95
2022-12-25T05:53:16.137Z,39.17
2022-12-25T05:55:44.707Z,43.13
2022-12-25T05:58:13.695Z,37.28
2022-12-25T06:00:43.803Z,36.00
2022-12-25T06:03:11.592Z,37.05
2022-12-25T06:05:39.893Z,37.00
2022-12-25T06:08:07.679Z,36.30
2022-12-25T06:10:36.395Z,37.50
2022-12-25T06:13:04.456Z,38.45
2022-12-25T06:15:32.311Z,38.55
2022-12-25T06:18:01.623Z,38.22
2022-12-25T06:20:29.466Z,37.17
2022-12-25T06:22:57.110Z,39.90
2022-12-25T06:25:24.719Z,39.30
2022-12-25T06:27:52.283Z,41.85
2022-12-25T06:30:20.033Z,45.97
2022-12-25T06:32:47.759Z,36.47
2022-12-25T06:35:15.576Z,40.10
2022-12-25T06:37:43.419Z,41.00
2022-12-25T06:40:11.440Z,44.55
2022-12-25T06:42:39.263Z,40.28
2022-12-25T06:45:07.329Z,41.08
2022-12-25T06:47:38.276Z,40.42
2022-12-25T06:52:35.987Z,39.53
2022-12-25T06:55:03.761Z,40.15
2022-12-25T06:57:31.620Z,41.13
2022-12-25T06:59:59.119Z,40.70
2022-12-25T07:02:27.510Z,46.65
2022-12-25T07:04:55.267Z,38.65
2022-12-25T07:07:25.848Z,43.08
2022-12-25T07:09:53.499Z,44.10
2022-12-25T07:12:25.896Z,45.28
2022-12-25T07:14:55.477Z,37.65
2022-12-25T07:17:24.016Z,44.03
2022-12-25T07:19:51.716Z,43.85
2022-12-25T07:22:19.315Z,38.40
2022-12-25T07:24:46.952Z,43.42
2022-12-25T07:27:14.483Z,37.15
2022-12-25T07:29:42.085Z,44.38
2022-12-25T07:32:09.692Z,39.00
2022-12-25T07:34:37.378Z,44.22
2022-12-25T07:37:05.030Z,40.67
2022-12-25T07:39:34.141Z,44.20
2022-12-25T07:42:01.611Z,41.75
2022-12-25T07:44:29.228Z,39.90
2022-12-25T07:46:56.697Z,39.33
2022-12-25T07:49:24.548Z,40.72
2022-12-25T07:51:52.187Z,42.05
2022-12-25T07:54:20.831Z,40.17
2022-12-25T07:56:52.636Z,42.70
2022-12-25T07:59:20.595Z,48.10
2022-12-25T08:01:50.605Z,43.85
2022-12-25T08:04:18.656Z,45.53
2022-12-25T08:06:46.341Z,42.83
2022-12-25T08:09:16.799Z,50.25
2022-12-25T08:11:48.098Z,43.50
2022-12-25T08:14:15.693Z,46.28
2022-12-25T08:16:43.348Z,42.42
2022-12-25T08:19:11.770Z,41.88
2022-12-25T08:21:39.353Z,39.22
2022-12-25T08:24:07.226Z,41.72
2022-12-25T08:26:35.713Z,35.37
2022-12-25T08:29:03.796Z,43.28
2022-12-25T08:31:33.459Z,39.70
2022-12-25T08:34:03.409Z,43.88
2022-12-25T08:36:31.043Z,47.05
2022-12-25T08:39:03.103Z,42.28
2022-12-25T08:41:32.524Z,45.47
2022-12-25T08:44:00.107Z,42.88
2022-12-25T08:46:27.711Z,47.75
2022-12-25T08:48:56.872Z,43.55
2022-12-25T08:51:26.013Z,48.30
2022-12-25T08:53:58.975Z,46.53
2022-12-25T08:56:27.021Z,44.92
2022-12-25T08:58:54.635Z,47.95
2022-12-25T09:01:22.460Z,48.15
2022-12-25T09:03:50.333Z,52.00
2022-12-25T09:06:18.064Z,54.50
2022-12-25T09:08:49.295Z,48.55
2022-12-25T09:11:19.839Z,52.33
2022-12-25T09:13:48.668Z,53.72
2022-12-25T09:16:20.387Z,58.75
2022-12-25T09:18:49.076Z,52.97
2022-12-25T09:21:17.694Z,55.45
2022-12-25T09:23:45.667Z,51.13
2022-12-25T09:26:16.848Z,54.83
2022-12-25T09:28:50.775Z,56.05
2022-12-25T09:31:20.643Z,59.58
2022-12-25T09:33:49.114Z,59.35
2022-12-25T09:36:16.733Z,58.45
2022-12-25T09:38:44.269Z,61.25
2022-12-25T09:41:33.564Z,57.97
2022-12-25T09:44:07.061Z,57.28
2022-12-25T09:47:05.489Z,63.33
2022-12-25T09:49:49.730Z,57.22
2022-12-25T09:52:24.041Z,54.88
2022-12-25T09:55:03.708Z,62.92
2022-12-25T09:57:33.011Z,59.55
2022-12-25T10:00:00.677Z,64.88
2022-12-25T10:02:51.032Z,59.42
2022-12-25T10:05:34.037Z,59.42
2022-12-25T10:08:42.381Z,67.68
2022-12-25T10:11:50.339Z,65.38
2022-12-25T10:14:29.937Z,68.13
2022-12-25T10:17:22.771Z,59.60
2022-12-25T10:19:59.936Z,70.55
2022-12-25T10:22:38.974Z,63.47
2022-12-25T10:25:15.196Z,81.70
2022-12-25T10:27:43.522Z,76.07
2022-12-25T10:30:20.313Z,75.20
2022-12-25T10:32:49.857Z,73.07
2022-12-25T10:35:20.842Z,74.68
2022-12-25T10:38:01.460Z,75.25
2022-12-25T10:40:39.825Z,78.90
2022-12-25T10:43:18.543Z,74.43
2022-12-25T10:45:48.678Z,84.50
2022-12-25T10:48:26.590Z,80.25
2022-12-25T10:50:55.387Z,72.28
2022-12-25T10:53:27.042Z,88.40
2022-12-25T10:55:55.506Z,84.07
2022-12-25T10:58:23.218Z,79.15
2022-12-25T11:01:00.200Z,88.43
2022-12-25T11:03:34.138Z,76.20
2022-12-25T11:06:03.014Z,77.47
2022-12-25T11:08:33.632Z,78.88
2022-12-25T11:11:09.025Z,82.68
2022-12-25T11:13:47.559Z,81.15
2022-12-25T11:16:26.082Z,73.47
2022-12-25T11:18:54.636Z,86.07
2022-12-25T11:21:29.485Z,77.25
2022-12-25T11:24:01.584Z,79.80
2022-12-25T11:26:32.176Z,80.65
2022-12-25T11:28:59.930Z,70.90
2022-12-25T11:31:41.210Z,73.30
2022-12-25T11:34:18.511Z,80.05
2022-12-25T11:36:51.854Z,90.15
2022-12-25T11:39:31.860Z,77.28
2022-12-25T11:42:04.839Z,83.47
2022-12-25T11:45:02.603Z,80.32
2022-12-25T11:47:39.616Z,87.97
2022-12-25T11:50:23.732Z,86.32
2022-12-25T11:52:53.347Z,75.30
2022-12-25T11:55:41.021Z,79.53
2022-12-25T11:58:20.735Z,81.43
2022-12-25T12:00:52.596Z,86.38
2022-12-25T12:03:25.872Z,88.43
2022-12-25T12:06:09.008Z,81.55
2022-12-25T12:08:38.734Z,74.35
2022-12-25T12:11:20.022Z,70.57
2022-12-25T12:14:01.613Z,71.28
2022-12-25T12:16:30.695Z,67.05
2022-12-25T12:18:58.348Z,72.18
2022-12-25T12:21:25.842Z,71.97
2022-12-25T12:24:09.790Z,74.60
2022-12-25T12:26:41.055Z,60.88
2022-12-25T12:29:27.563Z,66.20
2022-12-25T12:32:00.834Z,62.00
2022-12-25T12:34:31.186Z,64.80
2022-12-25T12:37:06.034Z,65.97
2022-12-25T12:39:37.509Z,64.68
2022-12-25T12:42:18.498Z,67.18
2022-12-25T12:44:48.645Z,55.35
2022-12-25T12:47:48.777Z,65.40
2022-12-25T12:50:42.790Z,57.80
2022-12-25T12:53:22.473Z,62.58
2022-12-25T12:58:37.692Z,61.47
2022-12-25T13:04:12.894Z,72.03
2022-12-25T13:06:49.031Z,81.35
2022-12-25T13:09:31.634Z,72.10
2022-12-25T13:12:06.654Z,78.95
2022-12-25T13:14:36.171Z,82.40
2022-12-25T13:17:08.965Z,72.80
2022-12-25T13:19:37.888Z,83.22
2022-12-25T13:22:07.330Z,71.25
2022-12-25T13:24:37.500Z,87.35
2022-12-25T13:27:26.563Z,77.95
2022-12-25T13:30:14.173Z,89.15
2022-12-25T13:32:43.453Z,85.60
2022-12-25T13:35:15.751Z,87.13
2022-12-25T13:37:44.590Z,88.45
2022-12-25T13:40:28.558Z,93.83
2022-12-25T13:43:00.940Z,79.80
2022-12-25T13:45:30.930Z,81.45
2022-12-25T13:48:09.616Z,89.78
2022-12-25T13:50:37.948Z,92.75
2022-12-25T13:53:16.303Z,88.47
2022-12-25T13:55:52.584Z,93.40
2022-12-25T13:58:31.545Z,85.95
2022-12-25T14:01:01.342Z,83.53
2022-12-25T14:06:21.916Z,90.40
2022-12-25T14:08:53.532Z,84.72
2022-12-25T14:11:23.547Z,74.65
2022-12-25T14:14:03.355Z,78.45
2022-12-25T15:27:53.965Z,63.75
2022-12-25T15:30:21.899Z,66.35
2022-12-25T15:32:49.619Z,71.78
2022-12-25T15:35:24.651Z,75.68
2022-12-25T15:37:52.865Z,69.47
2022-12-25T15:40:21.445Z,67.20
2022-12-25T15:42:50.356Z,70.57
2022-12-25T15:45:17.778Z,71.45
2022-12-25T15:47:45.419Z,68.75
2022-12-25T15:50:12.929Z,70.03
2022-12-25T15:52:40.393Z,68.10
2022-12-25T15:55:08.500Z,67.57
2022-12-25T15:57:37.887Z,70.43
2022-12-25T16:00:06.888Z,74.03
2022-12-25T16:02:39.372Z,69.97
2022-12-25T16:05:10.448Z,74.90
2022-12-25T16:07:39.132Z,70.13
2022-12-25T16:10:11.660Z,64.68
2022-12-25T16:12:39.265Z,68.00
2022-12-25T16:15:07.463Z,73.97
2022-12-25T16:17:35.281Z,74.75
2022-12-25T16:20:03.415Z,67.20
2022-12-25T16:22:32.026Z,68.25
2022-12-25T16:24:59.649Z,66.18
2022-12-25T16:27:27.520Z,75.97
2022-12-25T16:29:55.341Z,60.22
2022-12-25T16:32:22.857Z,69.82
2022-12-25T16:34:50.634Z,62.25
2022-12-25T16:37:18.346Z,56.95
2022-12-25T16:39:46.368Z,69.82
2022-12-25T16:42:14.025Z,62.83
2022-12-25T16:44:41.634Z,62.47
2022-12-25T16:47:09.137Z,60.47
2022-12-25T16:49:36.906Z,64.28
2022-12-25T16:52:04.987Z,62.45
2022-12-25T16:54:32.580Z,65.13
2022-12-25T16:57:00.341Z,64.00
2022-12-25T16:59:31.206Z,66.60
2022-12-25T17:01:59.407Z,65.72
2022-12-25T17:04:27.748Z,64.10
2022-12-25T17:06:55.466Z,67.22
2022-12-25T17:09:23.219Z,64.95
2022-12-25T17:11:50.870Z,61.03
2022-12-25T17:14:18.333Z,60.97
2022-12-25T17:16:46.067Z,69.03
2022-12-25T17:19:21.050Z,64.32
2022-12-25T17:21:48.842Z,61.47
2022-12-25T17:24:18.186Z,70.22
2022-12-25T17:26:45.697Z,64.40
2022-12-25T17:29:18.693Z,63.85
2022-12-25T17:31:49.577Z,67.85
2022-12-25T17:34:17.802Z,69.35
2022-12-25T17:36:45.591Z,58.95
2022-12-25T17:39:13.214Z,68.43
2022-12-25T17:41:41.044Z,72.75
2022-12-25T17:44:09.106Z,73.28
2022-12-25T17:46:36.755Z,71.15
2022-12-25T17:49:04.903Z,65.97
2022-12-25T17:51:32.976Z,73.13
2022-12-25T17:54:05.559Z,60.70
2022-12-25T17:56:33.924Z,65.07
2022-12-25T17:59:10.606Z,69.82
2022-12-25T18:01:40.097Z,59.20
2022-12-25T18:04:07.927Z,62.92
2022-12-25T18:06:36.542Z,64.00
2022-12-25T18:09:06.425Z,71.82
2022-12-25T18:11:37.579Z,69.25
2022-12-25T18:14:07.439Z,70.57
2022-12-25T18:19:04.694Z,58.90
2022-12-25T18:21:32.431Z,60.72
2022-12-25T18:24:01.712Z,69.88
2022-12-25T18:26:30.006Z,61.55
2022-12-25T18:28:58.017Z,62.97
2022-12-25T18:31:27.896Z,63.03
2022-12-25T18:36:26.133Z,71.57
2022-12-25T18:38:55.610Z,66.72
2022-12-25T18:41:23.546Z,74.40
2022-12-25T18:43:55.249Z,64.28
2022-12-25T18:46:26.324Z,66.70
2022-12-25T18:48:55.885Z,70.85
2022-12-25T18:51:24.215Z,69.05
2022-12-25T18:53:52.549Z,67.25
2022-12-25T18:56:20.481Z,63.10
2022-12-25T18:58:49.051Z,69.88
2022-12-25T19:01:23.832Z,66.75
2022-12-25T19:04:02.081Z,66.70
2022-12-25T19:10:42.082Z,70.05
2022-12-25T19:13:10.097Z,62.57
2022-12-25T19:15:43.529Z,62.30
2022-12-25T19:18:11.259Z,62.72
2022-12-25T19:20:41.499Z,57.80
2022-12-25T19:23:11.385Z,64.32
2022-12-25T19:25:48.614Z,58.03
2022-12-25T19:28:17.926Z,61.42
2022-12-25T19:30:45.547Z,58.45
2022-12-25T19:33:17.677Z,61.13
2022-12-25T19:35:47.481Z,59.03
2022-12-25T19:38:15.200Z,68.03
2022-12-25T19:41:00.621Z,64.25
2022-12-25T19:43:37.828Z,70.57
2022-12-25T19:46:14.550Z,71.68
2022-12-25T19:48:44.407Z,69.45
2022-12-25T19:51:21.059Z,71.53
2022-12-25T19:53:59.323Z,71.35
2022-12-25T19:56:32.414Z,73.03
2022-12-25T19:59:00.946Z,69.35
2022-12-25T20:01:29.433Z,74.55
2022-12-25T20:03:58.001Z,88.63
2022-12-25T20:06:33.324Z,73.72
2022-12-25T20:09:05.659Z,73.20
2022-12-25T20:11:35.363Z,81.72
2022-12-25T20:14:07.605Z,86.93
2022-12-25T20:16:41.743Z,75.35
2022-12-25T20:19:13.054Z,77.35
2022-12-25T20:21:41.211Z,87.43
2022-12-25T20:24:10.112Z,74.25
2022-12-25T20:26:39.375Z,77.32
2022-12-25T20:29:07.172Z,78.13
2022-12-25T20:31:35.978Z,72.07
2022-12-25T20:34:07.400Z,78.35
2022-12-25T20:36:37.779Z,83.50
2022-12-25T20:39:09.845Z,78.00
2022-12-25T20:41:39.727Z,75.90
2022-12-25T20:44:10.312Z,79.18
2022-12-25T20:46:39.176Z,85.15
2022-12-25T20:49:06.792Z,82.40
2022-12-25T20:51:34.567Z,77.70
2022-12-25T20:54:10.105Z,72.03
2022-12-25T20:56:38.792Z,81.03
2022-12-25T20:59:06.312Z,79.00
2022-12-25T21:01:34.260Z,79.53
2022-12-25T21:04:05.035Z,73.30
2022-12-25T21:06:32.797Z,80.75
2022-12-25T21:09:00.827Z,75.95
2022-12-25T21:11:31.404Z,67.88
2022-12-25T21:13:59.512Z,71.10
2022-12-25T21:16:28.412Z,70.47
2022-12-25T21:18:56.139Z,73.63
2022-12-25T21:21:26.202Z,74.97
2022-12-25T21:23:57.116Z,73.13
2022-12-25T21:26:30.348Z,71.90
2022-12-25T21:29:00.884Z,75.53
2022-12-25T21:31:52.287Z,63.25
2022-12-25T21:34:22.250Z,72.78
2022-12-25T21:36:55.177Z,73.22
2022-12-25T21:39:24.239Z,75.22
2022-12-25T21:41:58.272Z,61.30
2022-12-25T21:44:26.037Z,68.22
2022-12-25T21:46:56.725Z,65.32
2022-12-25T21:49:43.275Z,70.20
2022-12-25T21:52:11.053Z,70.60
2022-12-25T21:54:40.462Z,64.78
2022-12-25T22:05:07.066Z,56.95
2022-12-25T22:07:36.668Z,60.55
2022-12-25T22:10:04.673Z,70.40
2022-12-25T22:12:51.082Z,69.40
2022-12-25T22:15:18.737Z,66.20
2022-12-25T22:18:04.797Z,68.75
2022-12-25T22:20:37.578Z,63.03
2022-12-25T22:23:07.078Z,65.03
2022-12-25T22:25:34.957Z,65.80
2022-12-25T22:32:21.343Z,61.10
2022-12-25T22:34:51.074Z,59.75
2022-12-25T22:39:47.095Z,57.55
2022-12-25T22:42:14.587Z,64.43
2022-12-25T22:44:42.549Z,55.55
2022-12-25T22:47:12.661Z,58.40
2022-12-25T22:49:40.250Z,63.95
2022-12-25T22:52:10.034Z,55.38
2022-12-25T22:54:37.886Z,54.35
2022-12-25T22:57:05.682Z,56.72
2022-12-25T22:59:33.460Z,55.08
2022-12-25T23:02:02.054Z,58.20
2022-12-25T23:04:30.544Z,58.28
2022-12-25T23:06:58.415Z,62.28
2022-12-25T23:09:29.303Z,55.90
2022-12-25T23:11:58.718Z,65.35
2022-12-25T23:14:39.076Z,64.28
2022-12-25T23:17:31.856Z,63.40
2022-12-25T23:20:19.511Z,60.50
2022-12-25T23:23:05.685Z,59.78
2022-12-25T23:25:53.403Z,60.85
2022-12-25T23:28:39.763Z,62.67
2022-12-25T23:31:07.512Z,62.15
2022-12-25T23:33:36.161Z,70.38
2022-12-25T23:36:03.835Z,63.05
2022-12-25T23:38:31.362Z,70.47
2022-12-25T23:40:59.117Z,68.25
2022-12-25T23:43:26.792Z,68.60
2022-12-25T23:45:54.373Z,67.47
2022-12-25T23:48:21.902Z,70.40
2022-12-25T23:50:49.427Z,69.38
2022-12-25T23:53:17.038Z,69.28
2022-12-25T23:55:53.318Z,78.88
2022-12-25T23:58:26.385Z,69.00
